createdAt,value
2023-05-22T00:01:17.809Z,13.60
2023-05-22T00:03:48.676Z,14.35
2023-05-22T00:06:20.130Z,18.73
2023-05-22T00:08:50.822Z,16.55
2023-05-22T00:11:20.640Z,14.55
2023-05-22T00:13:50.673Z,14.75
2023-05-22T00:16:20.785Z,13.65
2023-05-22T00:18:51.300Z,16.13
2023-05-22T00:21:21.738Z,12.07
2023-05-22T00:23:51.484Z,15.95
2023-05-22T00:26:25.120Z,16.67
2023-05-22T00:28:55.167Z,12.82
2023-05-22T00:31:22.581Z,16.02
2023-05-22T00:33:52.520Z,13.25
2023-05-22T00:36:22.404Z,15.65
2023-05-22T00:38:53.004Z,17.42
2023-05-22T00:41:23.496Z,13.25
2023-05-22T00:43:53.652Z,16.00
2023-05-22T00:46:24.609Z,21.38
2023-05-22T00:48:54.821Z,14.05
2023-05-22T00:51:26.407Z,15.75
2023-05-22T00:53:56.864Z,15.98
2023-05-22T00:56:28.307Z,15.90
2023-05-22T00:58:56.007Z,17.20
2023-05-22T01:01:23.459Z,16.92
2023-05-22T01:03:52.497Z,19.88
2023-05-22T01:06:21.764Z,14.40
2023-05-22T01:08:48.985Z,17.75
2023-05-22T01:11:23.968Z,14.88
2023-05-22T01:14:11.068Z,16.50
2023-05-22T01:16:49.449Z,16.25
2023-05-22T01:19:54.147Z,21.27
2023-05-22T01:22:36.352Z,26.17
2023-05-22T01:25:45.718Z,25.25
2023-05-22T01:28:42.301Z,20.67
2023-05-22T01:31:11.891Z,22.88
2023-05-22T01:34:00.748Z,21.02
2023-05-22T01:36:35.187Z,18.48
2023-05-22T01:39:06.446Z,20.05
2023-05-22T01:41:35.029Z,18.63
2023-05-22T01:44:03.084Z,18.52
2023-05-22T01:46:31.513Z,16.83
2023-05-22T01:48:59.718Z,19.20
2023-05-22T01:51:45.831Z,16.92
2023-05-22T01:54:12.963Z,16.08
2023-05-22T01:56:52.532Z,17.77
2023-05-22T01:59:33.290Z,16.83
2023-05-22T02:02:04.987Z,18.55
2023-05-22T02:04:36.524Z,18.65
2023-05-22T02:07:04.647Z,19.13
2023-05-22T02:09:32.403Z,22.20
2023-05-22T02:12:01.242Z,16.63
2023-05-22T02:14:30.456Z,19.33
2023-05-22T02:16:58.368Z,17.40
2023-05-22T02:19:25.699Z,17.98
2023-05-22T02:21:53.048Z,20.33
2023-05-22T02:24:20.611Z,16.05
2023-05-22T02:26:48.261Z,16.27
2023-05-22T02:29:15.498Z,15.30
2023-05-22T02:31:42.714Z,15.88
2023-05-22T02:34:09.832Z,14.57
2023-05-22T02:36:37.502Z,16.55
2023-05-22T02:39:05.520Z,21.00
2023-05-22T02:41:32.672Z,16.13
2023-05-22T02:43:59.884Z,13.50
2023-05-22T02:46:27.159Z,20.30
2023-05-22T02:48:54.370Z,18.65
2023-05-22T02:51:21.631Z,14.20
2023-05-22T02:53:48.836Z,14.68
2023-05-22T02:56:16.149Z,15.68
2023-05-22T02:58:43.429Z,15.35
2023-05-22T03:01:10.696Z,14.40
2023-05-22T03:03:38.023Z,14.80
2023-05-22T03:06:05.469Z,16.38
2023-05-22T03:08:32.908Z,16.05
2023-05-22T03:11:01.544Z,15.07
2023-05-22T03:13:28.779Z,15.25
2023-05-22T03:15:56.039Z,15.00
2023-05-22T03:18:25.940Z,15.02
2023-05-22T03:20:54.536Z,15.30
2023-05-22T03:23:21.853Z,13.18
2023-05-22T03:25:49.158Z,19.70
2023-05-22T03:28:16.747Z,14.63
2023-05-22T03:30:43.986Z,15.77
2023-05-22T03:33:11.927Z,14.98
2023-05-22T03:35:39.212Z,13.10
2023-05-22T03:38:06.321Z,19.02
2023-05-22T03:40:33.586Z,14.20
2023-05-22T03:43:00.743Z,14.65
2023-05-22T03:45:27.921Z,14.82
2023-05-22T03:47:55.115Z,11.35
2023-05-22T03:50:22.575Z,14.57
2023-05-22T03:52:49.780Z,15.98
2023-05-22T03:55:17.310Z,13.88
2023-05-22T03:57:44.490Z,14.73
2023-05-22T04:00:12.767Z,17.02
2023-05-22T04:02:40.198Z,13.98
2023-05-22T04:05:08.864Z,13.80
2023-05-22T04:07:37.469Z,16.52
2023-05-22T04:10:05.570Z,11.73
2023-05-22T04:12:33.025Z,12.68
2023-05-22T04:15:00.225Z,13.18
2023-05-22T04:17:33.004Z,14.60
2023-05-22T04:22:33.424Z,14.63
2023-05-22T04:25:00.953Z,13.52
2023-05-22T04:27:29.999Z,16.17
2023-05-22T04:29:57.194Z,12.50
2023-05-22T04:32:24.365Z,16.30
2023-05-22T04:34:51.698Z,11.73
2023-05-22T04:37:20.525Z,13.52
2023-05-22T04:39:48.129Z,12.23
2023-05-22T04:42:16.163Z,13.77
2023-05-22T04:44:43.885Z,13.95
2023-05-22T04:47:12.265Z,10.13
2023-05-22T04:49:39.526Z,12.32
2023-05-22T04:52:07.349Z,14.45
2023-05-22T04:54:34.717Z,17.50
2023-05-22T04:57:04.602Z,12.13
2023-05-22T04:59:38.240Z,11.43
2023-05-22T05:02:06.271Z,13.80
2023-05-22T05:04:34.213Z,10.13
2023-05-22T05:07:02.710Z,13.40
2023-05-22T05:09:30.133Z,13.48
2023-05-22T05:11:57.495Z,15.27
2023-05-22T05:14:25.349Z,11.93
2023-05-22T05:16:53.087Z,18.80
2023-05-22T05:19:21.728Z,13.18
2023-05-22T05:21:52.591Z,16.25
2023-05-22T05:24:20.151Z,12.95
2023-05-22T05:26:47.503Z,12.43
2023-05-22T05:29:14.608Z,13.57
2023-05-22T05:31:42.451Z,12.75
2023-05-22T05:34:09.947Z,12.20
2023-05-22T05:36:37.273Z,12.93
2023-05-22T05:39:04.476Z,10.27
2023-05-22T05:41:31.683Z,12.68
2023-05-22T05:44:00.408Z,13.57
2023-05-22T05:46:27.767Z,16.75
2023-05-22T05:48:55.150Z,18.48
2023-05-22T05:51:22.430Z,14.02
2023-05-22T05:53:50.032Z,11.10
2023-05-22T05:56:17.286Z,11.75
2023-05-22T05:58:44.483Z,12.43
2023-05-22T06:01:12.017Z,8.07
2023-05-22T06:03:39.510Z,18.17
2023-05-22T06:06:07.600Z,9.65
2023-05-22T06:08:34.843Z,9.85
2023-05-22T06:11:02.592Z,13.32
2023-05-22T06:13:29.802Z,14.32
2023-05-22T06:15:59.533Z,12.32
2023-05-22T06:18:28.409Z,11.40
2023-05-22T06:20:57.330Z,11.32
2023-05-22T06:23:24.462Z,12.45
2023-05-22T06:25:51.732Z,10.02
2023-05-22T06:28:18.903Z,14.07
2023-05-22T06:30:46.251Z,10.68
2023-05-22T06:33:14.802Z,12.65
2023-05-22T06:35:42.326Z,11.25
2023-05-22T06:38:09.613Z,13.73
2023-05-22T06:40:36.827Z,10.73
2023-05-22T06:43:04.149Z,15.68
2023-05-22T06:45:31.474Z,12.82
2023-05-22T06:47:58.872Z,12.38
2023-05-22T06:50:26.307Z,13.10
2023-05-22T06:52:53.524Z,9.93
2023-05-22T06:55:20.936Z,14.30
2023-05-22T06:57:48.092Z,11.40
2023-05-22T07:00:15.689Z,11.45
2023-05-22T07:02:43.047Z,10.98
2023-05-22T07:05:10.253Z,15.77
2023-05-22T07:07:37.364Z,14.52
2023-05-22T07:10:04.962Z,14.60
2023-05-22T07:12:32.107Z,14.15
2023-05-22T07:15:00.418Z,12.60
2023-05-22T07:17:27.875Z,11.60
2023-05-22T07:19:55.070Z,15.88
2023-05-22T07:22:22.302Z,14.55
2023-05-22T07:24:49.484Z,15.65
2023-05-22T07:27:16.772Z,19.15
2023-05-22T07:29:44.007Z,14.57
2023-05-22T07:32:11.206Z,13.52
2023-05-22T07:34:38.759Z,18.25
2023-05-22T07:37:13.196Z,14.77
2023-05-22T07:39:40.619Z,16.65
2023-05-22T07:42:08.078Z,13.98
2023-05-22T07:44:35.244Z,12.43
2023-05-22T07:47:02.470Z,17.80
2023-05-22T07:49:29.595Z,13.13
2023-05-22T07:51:56.978Z,12.93
2023-05-22T07:54:24.284Z,14.20
2023-05-22T07:56:53.164Z,17.08
2023-05-22T07:59:21.767Z,10.18
2023-05-22T08:01:48.941Z,12.38
2023-05-22T08:04:16.473Z,11.90
2023-05-22T08:06:44.541Z,11.82
2023-05-22T08:09:12.034Z,11.50
2023-05-22T08:11:42.472Z,14.68
2023-05-22T08:14:09.858Z,15.00
2023-05-22T08:16:37.180Z,15.48
2023-05-22T08:19:06.568Z,12.80
2023-05-22T08:21:34.680Z,19.10
2023-05-22T08:24:02.448Z,12.15
2023-05-22T08:26:31.418Z,10.93
2023-05-22T08:28:59.625Z,13.45
2023-05-22T08:31:29.491Z,12.45
2023-05-22T08:34:02.967Z,12.88
2023-05-22T08:36:31.983Z,10.38
2023-05-22T08:38:59.149Z,11.50
2023-05-22T08:41:26.531Z,12.82
2023-05-22T08:43:54.143Z,15.13
2023-05-22T08:46:29.503Z,13.45
2023-05-22T08:48:59.525Z,12.90
2023-05-22T08:51:33.413Z,11.30
2023-05-22T08:54:05.219Z,9.93
2023-05-22T08:56:35.227Z,9.18
2023-05-22T08:59:05.676Z,9.77
2023-05-22T09:01:33.254Z,14.70
2023-05-22T09:04:02.365Z,11.55
2023-05-22T09:06:32.891Z,14.02
2023-05-22T09:09:00.356Z,11.68
2023-05-22T09:11:27.804Z,13.93
2023-05-22T09:14:10.473Z,16.35
2023-05-22T09:16:49.248Z,10.30
2023-05-22T09:19:16.811Z,9.07
2023-05-22T09:21:48.046Z,8.45
2023-05-22T09:24:15.577Z,8.70
2023-05-22T09:26:42.837Z,12.43
2023-05-22T09:29:10.572Z,11.95
2023-05-22T09:31:44.614Z,13.30
2023-05-22T09:34:15.907Z,13.95
2023-05-22T09:36:43.574Z,9.15
2023-05-22T09:39:11.187Z,9.98
2023-05-22T09:41:40.265Z,8.90
2023-05-22T09:44:14.230Z,7.68
2023-05-22T09:46:48.171Z,12.60
2023-05-22T09:49:17.467Z,7.30
2023-05-22T09:51:48.492Z,8.27
2023-05-22T09:54:18.365Z,15.02
2023-05-22T09:56:49.175Z,9.85
2023-05-22T09:59:22.129Z,8.65
2023-05-22T10:01:51.163Z,11.40
2023-05-22T10:04:19.551Z,11.82
2023-05-22T10:06:51.404Z,8.73
2023-05-22T10:09:21.705Z,8.23
2023-05-22T10:11:53.293Z,8.50
2023-05-22T10:14:20.624Z,8.73
2023-05-22T10:16:48.067Z,11.18
2023-05-22T10:19:15.708Z,9.55
2023-05-22T10:21:42.922Z,10.75
2023-05-22T10:24:11.220Z,11.85
2023-05-22T10:26:39.532Z,6.88
2023-05-22T10:29:20.821Z,6.50
2023-05-22T10:32:22.528Z,12.27
2023-05-22T10:35:21.256Z,8.88
2023-05-22T10:37:52.587Z,6.88
2023-05-22T10:40:29.322Z,7.47
2023-05-22T10:43:01.347Z,11.82
2023-05-22T10:45:29.536Z,10.48
2023-05-22T10:48:06.803Z,11.13
2023-05-22T10:50:36.002Z,7.00
2023-05-22T10:53:26.090Z,8.82
2023-05-22T10:55:55.148Z,8.00
2023-05-22T10:58:37.464Z,6.63
2023-05-22T11:01:18.587Z,6.97
2023-05-22T11:03:59.908Z,7.05
2023-05-22T11:06:41.584Z,6.78
2023-05-22T11:09:31.798Z,5.73
2023-05-22T11:12:25.143Z,9.43
2023-05-22T11:14:54.192Z,6.35
2023-05-22T11:17:23.324Z,8.07
2023-05-22T11:20:01.188Z,8.10
2023-05-22T11:22:42.465Z,9.88
2023-05-22T11:25:17.080Z,9.00
2023-05-22T11:27:45.040Z,5.50
2023-05-22T11:30:13.802Z,7.60
2023-05-22T11:32:46.268Z,9.75
2023-05-22T11:35:21.391Z,9.93
2023-05-22T11:37:50.865Z,10.98
2023-05-22T11:40:21.424Z,10.25
2023-05-22T11:42:49.003Z,6.28
2023-05-22T11:45:16.486Z,14.77
2023-05-22T11:47:44.289Z,7.75
2023-05-22T11:50:13.461Z,7.63
2023-05-22T11:52:42.132Z,10.43
2023-05-22T11:55:13.540Z,9.32
2023-05-22T11:57:40.750Z,16.23
2023-05-22T12:00:09.102Z,8.82
2023-05-22T12:02:37.129Z,8.38
2023-05-22T12:05:04.782Z,9.27
2023-05-22T12:07:32.584Z,8.85
2023-05-22T12:10:01.440Z,8.50
2023-05-22T12:12:28.837Z,8.77
2023-05-22T12:14:57.710Z,11.43
2023-05-22T12:17:24.853Z,11.63
2023-05-22T12:19:54.040Z,7.85
2023-05-22T12:22:23.691Z,10.25
2023-05-22T12:24:53.062Z,7.72
2023-05-22T12:27:20.354Z,10.32
2023-05-22T12:29:47.507Z,9.77
2023-05-22T12:32:14.946Z,7.68
2023-05-22T12:34:46.937Z,8.38
2023-05-22T12:37:34.373Z,10.23
2023-05-22T12:40:03.748Z,9.05
2023-05-22T12:42:31.201Z,9.57
2023-05-22T12:45:00.160Z,9.55
2023-05-22T12:47:27.663Z,9.43
2023-05-22T12:49:55.142Z,9.13
2023-05-22T12:52:22.491Z,9.90
2023-05-22T12:54:52.433Z,11.32
2023-05-22T12:57:19.757Z,9.02
2023-05-22T12:59:47.061Z,8.10
2023-05-22T13:02:14.398Z,6.78
2023-05-22T13:04:41.648Z,9.00
2023-05-22T13:07:08.884Z,14.15
2023-05-22T13:09:36.271Z,10.98
2023-05-22T13:12:03.595Z,10.25
2023-05-22T13:14:31.118Z,6.03
2023-05-22T13:16:59.717Z,9.75
2023-05-22T13:19:27.053Z,9.38
2023-05-22T13:21:54.313Z,8.57
2023-05-22T13:24:21.434Z,7.85
2023-05-22T13:26:48.741Z,8.40
2023-05-22T13:29:15.921Z,7.28
2023-05-22T13:31:43.151Z,9.48
2023-05-22T13:34:10.588Z,7.43
2023-05-22T13:36:37.895Z,4.57
2023-05-22T13:39:05.156Z,7.72
2023-05-22T13:41:32.358Z,8.30
2023-05-22T13:43:59.521Z,11.93
2023-05-22T13:46:26.767Z,8.82
2023-05-22T13:48:54.298Z,8.43
2023-05-22T13:51:21.585Z,8.27
2023-05-22T13:53:48.791Z,6.85
2023-05-22T13:56:15.990Z,7.22
2023-05-22T13:58:43.194Z,9.13
2023-05-22T14:01:10.719Z,8.23
2023-05-22T14:03:38.177Z,12.02
2023-05-22T14:06:05.521Z,7.07
2023-05-22T14:08:32.768Z,7.45
2023-05-22T14:11:00.265Z,7.35
2023-05-22T14:13:27.846Z,6.32
2023-05-22T14:15:55.397Z,5.72
2023-05-22T14:18:22.650Z,5.07
2023-05-22T14:20:50.068Z,6.20
2023-05-22T14:23:17.301Z,7.30
2023-05-22T14:25:44.654Z,6.00
2023-05-22T14:28:12.867Z,7.90
2023-05-22T14:30:40.365Z,7.28
2023-05-22T14:33:08.384Z,7.57
2023-05-22T14:35:35.872Z,8.63
2023-05-22T14:38:03.020Z,9.15
2023-05-22T14:40:30.281Z,6.78
2023-05-22T14:42:57.452Z,10.85
2023-05-22T14:45:24.635Z,10.43
2023-05-22T14:47:53.412Z,7.38
2023-05-22T14:50:21.114Z,9.98
2023-05-22T14:52:49.396Z,11.45
2023-05-22T14:55:17.766Z,9.05
2023-05-22T14:57:45.403Z,8.63
2023-05-22T15:00:13.488Z,8.07
2023-05-22T15:02:41.423Z,11.38
2023-05-22T15:05:09.913Z,7.18
2023-05-22T15:10:28.196Z,7.13
2023-05-22T15:12:55.699Z,5.50
2023-05-22T15:15:24.771Z,6.43
2023-05-22T15:17:52.009Z,7.55
2023-05-22T15:20:19.397Z,9.35
2023-05-22T15:22:46.591Z,7.22
2023-05-22T15:25:15.597Z,9.80
2023-05-22T15:27:43.092Z,8.48
2023-05-22T15:30:10.552Z,6.38
2023-05-22T15:32:38.208Z,7.25
2023-05-22T15:35:06.888Z,6.45
2023-05-22T15:37:34.407Z,7.22
2023-05-22T15:40:02.105Z,6.93
2023-05-22T15:42:30.018Z,7.40
2023-05-22T15:44:59.617Z,8.18
2023-05-22T15:47:27.087Z,8.88
2023-05-22T15:49:54.673Z,9.65
2023-05-22T15:52:24.671Z,8.63
2023-05-22T15:54:52.076Z,6.88
2023-05-22T15:57:19.480Z,8.40
2023-05-22T15:59:51.067Z,8.57
2023-05-22T16:02:19.057Z,11.00
2023-05-22T16:04:46.578Z,9.75
2023-05-22T16:07:13.821Z,6.35
2023-05-22T16:09:43.671Z,6.57
2023-05-22T16:12:11.727Z,6.07
2023-05-22T16:14:40.187Z,6.80
2023-05-22T16:17:07.824Z,7.63
2023-05-22T16:19:35.162Z,5.88
2023-05-22T16:22:03.213Z,9.65
2023-05-22T16:24:30.370Z,7.28
2023-05-22T16:26:59.635Z,8.82
2023-05-22T16:29:26.956Z,9.70
2023-05-22T16:31:54.338Z,10.95
2023-05-22T16:34:21.783Z,8.77
2023-05-22T16:36:49.055Z,10.18
2023-05-22T16:39:16.250Z,8.77
2023-05-22T16:41:43.516Z,7.57
2023-05-22T16:44:10.723Z,8.00
2023-05-22T16:46:38.004Z,10.05
2023-05-22T16:49:05.265Z,9.00
2023-05-22T16:51:32.379Z,5.88
2023-05-22T16:53:59.545Z,9.85
2023-05-22T16:56:26.788Z,7.97
2023-05-22T16:58:53.986Z,6.60
2023-05-22T17:01:21.853Z,10.07
2023-05-22T17:03:49.352Z,8.40
2023-05-22T17:06:18.275Z,8.77
2023-05-22T17:08:47.156Z,7.53
2023-05-22T17:11:14.401Z,8.43
2023-05-22T17:13:41.655Z,8.95
2023-05-22T17:16:09.879Z,12.30
2023-05-22T17:18:37.927Z,6.82
2023-05-22T17:21:05.271Z,7.40
2023-05-22T17:23:32.892Z,7.38
2023-05-22T17:26:00.150Z,6.50
2023-05-22T17:28:27.306Z,9.57
2023-05-22T17:30:55.332Z,8.18
2023-05-22T17:33:22.879Z,6.45
2023-05-22T17:35:50.111Z,10.65
2023-05-22T17:38:17.372Z,7.95
2023-05-22T17:40:45.908Z,9.25
2023-05-22T17:43:14.100Z,8.05
2023-05-22T17:45:42.043Z,9.73
2023-05-22T17:48:09.411Z,10.32
2023-05-22T17:50:36.700Z,9.68
2023-05-22T17:53:04.117Z,9.40
2023-05-22T17:55:31.358Z,6.60
2023-05-22T17:57:59.892Z,8.93
2023-05-22T18:00:27.047Z,8.27
2023-05-22T18:02:56.049Z,5.57
2023-05-22T18:05:23.439Z,6.60
2023-05-22T18:07:50.631Z,5.70
2023-05-22T18:10:17.902Z,11.73
2023-05-22T18:12:45.203Z,8.18
2023-05-22T18:15:12.653Z,8.27
2023-05-22T18:17:41.518Z,8.43
2023-05-22T18:20:12.448Z,8.38
2023-05-22T18:22:40.551Z,9.20
2023-05-22T18:25:08.701Z,10.75
2023-05-22T18:27:36.515Z,9.77
2023-05-22T18:30:05.502Z,10.18
2023-05-22T18:32:32.856Z,11.68
2023-05-22T18:35:03.574Z,37.75
2023-05-22T18:37:31.237Z,14.20
2023-05-22T18:39:58.651Z,12.60
2023-05-22T18:42:26.002Z,12.63
2023-05-22T18:44:53.332Z,14.55
2023-05-22T18:47:20.793Z,13.55
2023-05-22T18:49:48.015Z,14.25
2023-05-22T18:52:16.611Z,11.90
2023-05-22T18:54:43.827Z,13.52
2023-05-22T18:57:11.082Z,13.57
2023-05-22T18:59:38.341Z,15.45
2023-05-22T19:02:05.958Z,12.55
2023-05-22T19:04:33.227Z,13.35
2023-05-22T19:07:00.718Z,10.10
2023-05-22T19:09:27.960Z,12.07
2023-05-22T19:11:55.228Z,14.13
2023-05-22T19:14:22.463Z,14.07
2023-05-22T19:16:50.626Z,16.45
2023-05-22T19:19:18.013Z,12.00
2023-05-22T19:21:45.310Z,16.17
2023-05-22T19:24:12.433Z,14.77
2023-05-22T19:26:39.674Z,10.38
2023-05-22T19:29:06.808Z,15.75
2023-05-22T19:31:34.573Z,14.23
2023-05-22T19:34:01.877Z,14.93
2023-05-22T19:36:29.246Z,14.15
2023-05-22T19:38:56.522Z,16.65
2023-05-22T19:41:24.330Z,11.32
2023-05-22T19:43:52.111Z,12.82
2023-05-22T19:46:22.472Z,8.85
2023-05-22T19:48:49.992Z,13.98
2023-05-22T19:51:17.315Z,13.02
2023-05-22T19:53:44.551Z,14.07
2023-05-22T19:56:12.388Z,12.50
2023-05-22T19:58:41.016Z,9.48
2023-05-22T20:01:08.263Z,10.40
2023-05-22T20:03:35.883Z,9.98
2023-05-22T20:06:03.315Z,12.63
2023-05-22T20:08:30.532Z,14.50
2023-05-22T20:11:03.592Z,11.25
2023-05-22T20:13:33.737Z,11.85
2023-05-22T20:16:08.183Z,9.68
2023-05-22T20:18:35.817Z,15.48
2023-05-22T20:21:03.082Z,12.32
2023-05-22T20:23:31.425Z,12.70
2023-05-22T20:25:58.692Z,11.63
2023-05-22T20:28:29.896Z,12.82
2023-05-22T20:30:58.112Z,11.00
2023-05-22T20:33:25.515Z,12.52
2023-05-22T20:35:53.431Z,12.93
2023-05-22T20:38:20.762Z,11.65
2023-05-22T20:40:48.119Z,13.38
2023-05-22T20:43:16.183Z,11.82
2023-05-22T20:45:46.076Z,11.95
2023-05-22T20:48:13.955Z,12.18
2023-05-22T20:50:43.734Z,13.05
2023-05-22T20:53:11.249Z,12.18
2023-05-22T20:55:38.785Z,13.27
2023-05-22T20:58:06.760Z,11.57
2023-05-22T21:00:35.173Z,12.57
2023-05-22T21:03:02.358Z,11.38
2023-05-22T21:05:29.592Z,9.50
2023-05-22T21:07:58.117Z,12.70
2023-05-22T21:10:25.239Z,10.15
2023-05-22T21:12:52.427Z,11.68
2023-05-22T21:15:19.686Z,10.75
2023-05-22T21:17:47.036Z,11.93
2023-05-22T21:20:14.300Z,10.27
2023-05-22T21:22:41.497Z,10.82
2023-05-22T21:25:09.555Z,11.07
2023-05-22T21:27:36.679Z,14.73
2023-05-22T21:30:04.276Z,11.32
2023-05-22T21:32:31.479Z,9.85
2023-05-22T21:34:58.652Z,10.00
2023-05-22T21:37:25.946Z,8.10
2023-05-22T21:39:53.144Z,11.38
2023-05-22T21:42:21.394Z,8.90
2023-05-22T21:44:48.630Z,16.20
2023-05-22T21:47:16.034Z,11.02
2023-05-22T21:49:43.388Z,11.88
2023-05-22T21:52:10.597Z,9.05
2023-05-22T21:54:37.806Z,11.30
2023-05-22T21:57:05.042Z,13.93
2023-05-22T21:59:32.291Z,13.18
2023-05-22T22:01:59.510Z,10.27
2023-05-22T22:04:26.760Z,13.35
2023-05-22T22:06:54.042Z,13.57
2023-05-22T22:09:21.300Z,13.77
2023-05-22T22:11:48.908Z,12.30
2023-05-22T22:14:16.081Z,14.07
2023-05-22T22:16:44.552Z,12.25
2023-05-22T22:19:11.958Z,11.18
2023-05-22T22:21:39.277Z,9.55
2023-05-22T22:24:06.663Z,8.13
2023-05-22T22:26:33.978Z,10.20
2023-05-22T22:29:01.270Z,14.23
2023-05-22T22:31:28.529Z,10.77
2023-05-22T22:33:55.789Z,9.95
2023-05-22T22:36:23.492Z,9.68
2023-05-22T22:38:50.758Z,9.50
2023-05-22T22:41:17.975Z,13.38
2023-05-22T22:43:45.298Z,12.60
2023-05-22T22:46:12.466Z,11.45
2023-05-22T22:48:41.895Z,11.20
2023-05-22T22:51:09.857Z,11.48
2023-05-22T22:53:37.496Z,13.07
2023-05-22T22:56:05.010Z,13.35
2023-05-22T22:58:32.291Z,10.35
2023-05-22T23:00:59.539Z,10.85
2023-05-22T23:03:27.388Z,10.63
2023-05-22T23:05:54.644Z,11.45
2023-05-22T23:08:21.993Z,10.85
2023-05-22T23:10:49.353Z,11.65
2023-05-22T23:13:16.684Z,11.75
2023-05-22T23:15:44.123Z,11.95
2023-05-22T23:18:13.614Z,10.70
2023-05-22T23:20:40.936Z,10.77
2023-05-22T23:23:08.064Z,10.98
2023-05-22T23:25:35.344Z,10.57
2023-05-22T23:28:02.588Z,20.85
2023-05-22T23:30:29.805Z,16.70
2023-05-22T23:32:57.209Z,12.02
2023-05-22T23:35:24.541Z,10.68
2023-05-22T23:37:52.782Z,13.35
2023-05-22T23:40:19.932Z,13.73
2023-05-22T23:42:47.154Z,12.75
2023-05-22T23:45:14.363Z,12.63
2023-05-22T23:47:41.778Z,10.52
2023-05-22T23:50:09.222Z,13.15
2023-05-22T23:52:36.750Z,14.55
2023-05-22T23:55:04.108Z,13.57
2023-05-22T23:57:31.527Z,13.80
2023-05-22T23:59:58.704Z,12.77
